sensor_id;sensor_type;location;lat;lon;timestamp;pressure;altitude;pressure_sealevel;temperature;humidity
61573;BME280;47465;43.094;12.434;2023-04-19T00:02:09;98623.84;;;9.24;93.25
61573;BME280;47465;43.094;12.434;2023-04-19T00:04:35;98644.03;;;9.30;93.76
61573;BME280;47465;43.094;12.434;2023-04-19T00:07:02;98624.03;;;9.16;93.92
61573;BME280;47465;43.094;12.434;2023-04-19T00:09:28;98633.66;;;9.20;93.79
61573;BME280;47465;43.094;12.434;2023-04-19T00:11:54;98648.59;;;9.24;93.88
61573;BME280;47465;43.094;12.434;2023-04-19T00:14:20;98650.22;;;9.30;93.94
61573;BME280;47465;43.094;12.434;2023-04-19T00:16:46;98637.41;;;9.12;94.41
61573;BME280;47465;43.094;12.434;2023-04-19T00:19:13;98657.31;;;8.91;95.95
61573;BME280;47465;43.094;12.434;2023-04-19T00:21:40;98623.22;;;8.74;96.68
61573;BME280;47465;43.094;12.434;2023-04-19T00:24:06;98669.38;;;9.05;96.55
61573;BME280;47465;43.094;12.434;2023-04-19T00:26:32;98666.69;;;9.07;96.77
61573;BME280;47465;43.094;12.434;2023-04-19T00:28:58;98669.00;;;9.21;96.14
61573;BME280;47465;43.094;12.434;2023-04-19T00:31:24;98664.28;;;9.34;95.24
61573;BME280;47465;43.094;12.434;2023-04-19T00:33:50;98620.63;;;9.11;95.18
61573;BME280;47465;43.094;12.434;2023-04-19T00:36:17;98665.72;;;9.47;94.90
61573;BME280;47465;43.094;12.434;2023-04-19T00:44:02;98636.69;;;9.03;96.51
61573;BME280;47465;43.094;12.434;2023-04-19T00:46:28;98623.69;;;8.93;95.45
61573;BME280;47465;43.094;12.434;2023-04-19T00:48:54;98648.34;;;8.96;96.30
61573;BME280;47465;43.094;12.434;2023-04-19T00:51:22;98624.16;;;8.71;96.82
61573;BME280;47465;43.094;12.434;2023-04-19T00:53:48;98639.94;;;8.77;97.32
61573;BME280;47465;43.094;12.434;2023-04-19T00:56:15;98623.44;;;8.63;98.13
61573;BME280;47465;43.094;12.434;2023-04-19T00:58:42;98609.41;;;8.59;98.90
61573;BME280;47465;43.094;12.434;2023-04-19T01:01:08;98644.03;;;8.92;98.36
61573;BME280;47465;43.094;12.434;2023-04-19T01:03:34;98632.47;;;8.95;97.95
61573;BME280;47465;43.094;12.434;2023-04-19T01:06:01;98639.28;;;9.07;97.49
61573;BME280;47465;43.094;12.434;2023-04-19T01:08:28;98616.44;;;8.99;97.16
61573;BME280;47465;43.094;12.434;2023-04-19T01:10:54;98643.53;;;9.14;96.20
61573;BME280;47465;43.094;12.434;2023-04-19T01:13:20;98649.72;;;9.14;96.59
61573;BME280;47465;43.094;12.434;2023-04-19T01:15:46;98613.19;;;8.88;97.76
61573;BME280;47465;43.094;12.434;2023-04-19T01:18:12;98610.72;;;8.80;97.50
61573;BME280;47465;43.094;12.434;2023-04-19T01:20:38;98605.25;;;8.87;98.02
61573;BME280;47465;43.094;12.434;2023-04-19T01:23:06;98621.94;;;8.92;98.34
61573;BME280;47465;43.094;12.434;2023-04-19T01:25:36;98617.81;;;9.17;97.03
61573;BME280;47465;43.094;12.434;2023-04-19T01:28:02;98602.25;;;9.02;95.97
61573;BME280;47465;43.094;12.434;2023-04-19T01:30:28;98611.13;;;9.01;96.76
61573;BME280;47465;43.094;12.434;2023-04-19T01:32:54;98635.31;;;9.24;97.18
61573;BME280;47465;43.094;12.434;2023-04-19T01:35:20;98614.00;;;9.29;96.05
61573;BME280;47465;43.094;12.434;2023-04-19T01:37:46;98617.97;;;9.47;95.19
61573;BME280;47465;43.094;12.434;2023-04-19T01:40:14;98621.56;;;9.44;94.98
61573;BME280;47465;43.094;12.434;2023-04-19T01:42:40;98621.56;;;9.44;95.25
61573;BME280;47465;43.094;12.434;2023-04-19T01:45:07;98613.97;;;9.31;95.43
61573;BME280;47465;43.094;12.434;2023-04-19T01:47:33;98602.88;;;9.13;96.00
61573;BME280;47465;43.094;12.434;2023-04-19T01:49:59;98641.84;;;9.47;95.88
61573;BME280;47465;43.094;12.434;2023-04-19T01:52:25;98608.19;;;9.13;96.13
61573;BME280;47465;43.094;12.434;2023-04-19T01:54:51;98618.84;;;9.10;96.96
61573;BME280;47465;43.094;12.434;2023-04-19T01:57:18;98635.75;;;9.06;98.79
61573;BME280;47465;43.094;12.434;2023-04-19T01:59:44;98612.47;;;8.80;99.44
61573;BME280;47465;43.094;12.434;2023-04-19T02:02:10;98627.50;;;8.79;100.00
61573;BME280;47465;43.094;12.434;2023-04-19T02:04:36;98625.00;;;8.73;100.00
61573;BME280;47465;43.094;12.434;2023-04-19T02:07:02;98623.25;;;8.72;100.00
61573;BME280;47465;43.094;12.434;2023-04-19T02:09:28;98632.94;;;8.75;100.00
61573;BME280;47465;43.094;12.434;2023-04-19T02:11:54;98634.59;;;8.79;100.00
61573;BME280;47465;43.094;12.434;2023-04-19T02:14:21;98618.00;;;8.69;100.00
61573;BME280;47465;43.094;12.434;2023-04-19T02:16:47;98635.50;;;8.78;100.00
61573;BME280;47465;43.094;12.434;2023-04-19T02:19:13;98643.53;;;8.75;100.00
61573;BME280;47465;43.094;12.434;2023-04-19T02:21:39;98607.84;;;8.49;100.00
61573;BME280;47465;43.094;12.434;2023-04-19T02:24:06;98632.31;;;8.62;100.00
61573;BME280;47465;43.094;12.434;2023-04-19T02:26:32;98637.69;;;8.59;100.00
61573;BME280;47465;43.094;12.434;2023-04-19T02:28:58;98640.47;;;8.53;100.00
61573;BME280;47465;43.094;12.434;2023-04-19T02:31:26;98617.88;;;8.33;100.00
61573;BME280;47465;43.094;12.434;2023-04-19T02:33:52;98624.94;;;8.33;100.00
61573;BME280;47465;43.094;12.434;2023-04-19T02:36:17;98638.16;;;8.34;100.00
61573;BME280;47465;43.094;12.434;2023-04-19T02:38:43;98611.25;;;8.11;100.00
61573;BME280;47465;43.094;12.434;2023-04-19T02:41:09;98619.06;;;8.17;100.00
61573;BME280;47465;43.094;12.434;2023-04-19T02:43:35;98610.38;;;8.09;100.00
61573;BME280;47465;43.094;12.434;2023-04-19T02:46:01;98640.91;;;8.28;100.00
61573;BME280;47465;43.094;12.434;2023-04-19T02:48:29;98608.75;;;8.05;100.00
61573;BME280;47465;43.094;12.434;2023-04-19T02:50:55;98615.66;;;8.10;100.00
61573;BME280;47465;43.094;12.434;2023-04-19T02:53:21;98605.25;;;8.02;100.00
61573;BME280;47465;43.094;12.434;2023-04-19T02:55:47;98610.53;;;8.02;100.00
61573;BME280;47465;43.094;12.434;2023-04-19T02:58:12;98603.56;;;7.97;100.00
61573;BME280;47465;43.094;12.434;2023-04-19T03:00:39;98637.59;;;8.18;100.00
61573;BME280;47465;43.094;12.434;2023-04-19T03:03:05;98612.19;;;8.08;100.00
61573;BME280;47465;43.094;12.434;2023-04-19T03:05:33;98616.59;;;8.08;100.00
61573;BME280;47465;43.094;12.434;2023-04-19T03:07:59;98655.16;;;8.24;100.00
61573;BME280;47465;43.094;12.434;2023-04-19T03:10:25;98608.03;;;7.93;100.00
61573;BME280;47465;43.094;12.434;2023-04-19T03:12:51;98613.31;;;7.96;100.00
61573;BME280;47465;43.094;12.434;2023-04-19T03:15:17;98614.19;;;7.95;100.00
61573;BME280;47465;43.094;12.434;2023-04-19T03:17:43;98634.41;;;7.99;100.00
61573;BME280;47465;43.094;12.434;2023-04-19T03:20:10;98610.00;;;7.84;100.00
61573;BME280;47465;43.094;12.434;2023-04-19T03:22:38;98610.03;;;7.82;100.00
61573;BME280;47465;43.094;12.434;2023-04-19T03:25:04;98604.69;;;7.85;100.00
61573;BME280;47465;43.094;12.434;2023-04-19T03:27:33;98614.38;;;7.86;100.00
61573;BME280;47465;43.094;12.434;2023-04-19T03:30:00;98624.75;;;7.97;100.00
61573;BME280;47465;43.094;12.434;2023-04-19T03:32:29;98615.13;;;7.93;100.00
61573;BME280;47465;43.094;12.434;2023-04-19T03:34:55;98630.16;;;7.91;100.00
61573;BME280;47465;43.094;12.434;2023-04-19T03:37:21;98634.69;;;7.86;100.00
61573;BME280;47465;43.094;12.434;2023-04-19T03:39:49;98622.50;;;7.77;100.00
61573;BME280;47465;43.094;12.434;2023-04-19T03:42:15;98633.91;;;7.79;100.00
61573;BME280;47465;43.094;12.434;2023-04-19T03:44:40;98617.38;;;7.68;100.00
61573;BME280;47465;43.094;12.434;2023-04-19T03:47:06;98640.94;;;7.81;100.00
61573;BME280;47465;43.094;12.434;2023-04-19T03:49:32;98654.19;;;7.80;100.00
61573;BME280;47465;43.094;12.434;2023-04-19T03:51:58;98629.63;;;7.72;100.00
61573;BME280;47465;43.094;12.434;2023-04-19T03:54:24;98640.84;;;7.86;100.00
61573;BME280;47465;43.094;12.434;2023-04-19T03:56:51;98673.16;;;8.05;100.00
61573;BME280;47465;43.094;12.434;2023-04-19T03:59:17;98646.88;;;7.94;100.00
61573;BME280;47465;43.094;12.434;2023-04-19T04:01:43;98631.28;;;7.77;100.00
61573;BME280;47465;43.094;12.434;2023-04-19T04:04:09;98663.63;;;7.95;100.00
61573;BME280;47465;43.094;12.434;2023-04-19T04:06:36;98649.69;;;7.85;100.00
61573;BME280;47465;43.094;12.434;2023-04-19T04:09:02;98638.53;;;7.68;100.00
61573;BME280;47465;43.094;12.434;2023-04-19T04:11:29;98675.16;;;7.91;100.00
61573;BME280;47465;43.094;12.434;2023-04-19T04:13:57;98652.38;;;7.84;100.00
61573;BME280;47465;43.094;12.434;2023-04-19T04:16:23;98661.81;;;7.98;100.00
61573;BME280;47465;43.094;12.434;2023-04-19T04:18:49;98684.50;;;8.12;100.00
61573;BME280;47465;43.094;12.434;2023-04-19T04:21:15;98632.13;;;7.81;100.00
61573;BME280;47465;43.094;12.434;2023-04-19T04:23:41;98645.41;;;7.78;100.00
61573;BME280;47465;43.094;12.434;2023-04-19T04:26:07;98673.25;;;7.99;100.00
61573;BME280;47465;43.094;12.434;2023-04-19T04:28:34;98666.28;;;7.93;100.00
61573;BME280;47465;43.094;12.434;2023-04-19T04:31:02;98644.41;;;7.84;100.00
61573;BME280;47465;43.094;12.434;2023-04-19T04:33:28;98668.06;;;7.94;100.00
61573;BME280;47465;43.094;12.434;2023-04-19T04:35:55;98639.97;;;7.86;100.00
61573;BME280;47465;43.094;12.434;2023-04-19T04:38:22;98640.00;;;7.84;100.00
61573;BME280;47465;43.094;12.434;2023-04-19T04:40:49;98629.38;;;7.87;100.00
61573;BME280;47465;43.094;12.434;2023-04-19T04:43:16;98671.31;;;8.09;100.00
61573;BME280;47465;43.094;12.434;2023-04-19T04:45:41;98638.97;;;7.91;100.00
61573;BME280;47465;43.094;12.434;2023-04-19T04:48:10;98684.34;;;8.21;100.00
61573;BME280;47465;43.094;12.434;2023-04-19T04:50:36;98644.22;;;7.96;100.00
61573;BME280;47465;43.094;12.434;2023-04-19T04:53:02;98637.22;;;7.92;100.00
61573;BME280;47465;43.094;12.434;2023-04-19T04:55:28;98656.41;;;8.05;100.00
61573;BME280;47465;43.094;12.434;2023-04-19T04:57:55;98652.84;;;8.04;100.00
61573;BME280;47465;43.094;12.434;2023-04-19T05:00:22;98671.94;;;8.21;100.00
61573;BME280;47465;43.094;12.434;2023-04-19T05:02:48;98672.78;;;8.25;100.00
61573;BME280;47465;43.094;12.434;2023-04-19T05:05:20;98689.31;;;8.38;100.00
61573;BME280;47465;43.094;12.434;2023-04-19T05:07:46;98680.53;;;8.36;100.00
61573;BME280;47465;43.094;12.434;2023-04-19T05:10:12;98658.56;;;8.31;100.00
61573;BME280;47465;43.094;12.434;2023-04-19T05:12:41;98691.59;;;8.58;100.00
61573;BME280;47465;43.094;12.434;2023-04-19T05:15:07;98689.84;;;8.57;100.00
61573;BME280;47465;43.094;12.434;2023-04-19T05:17:33;98651.06;;;8.53;100.00
61573;BME280;47465;43.094;12.434;2023-04-19T05:19:59;98651.59;;;8.69;100.00
61573;BME280;47465;43.094;12.434;2023-04-19T05:22:27;98650.50;;;8.79;100.00
61573;BME280;47465;43.094;12.434;2023-04-19T05:24:53;98675.25;;;8.78;100.00
61573;BME280;47465;43.094;12.434;2023-04-19T05:27:19;98668.25;;;8.75;100.00
61573;BME280;47465;43.094;12.434;2023-04-19T05:29:45;98696.97;;;8.97;100.00
61573;BME280;47465;43.094;12.434;2023-04-19T05:32:11;98668.16;;;8.80;100.00
61573;BME280;47465;43.094;12.434;2023-04-19T05:34:37;98679.69;;;8.77;100.00
61573;BME280;47465;43.094;12.434;2023-04-19T05:37:04;98675.13;;;8.86;100.00
61573;BME280;47465;43.094;12.434;2023-04-19T05:39:31;98682.66;;;9.04;100.00
61573;BME280;47465;43.094;12.434;2023-04-19T05:41:57;98688.41;;;9.24;100.00
61573;BME280;47465;43.094;12.434;2023-04-19T05:44:23;98660.03;;;9.27;100.00
61573;BME280;47465;43.094;12.434;2023-04-19T05:46:50;98661.59;;;9.35;100.00
61573;BME280;47465;43.094;12.434;2023-04-19T05:49:16;98660.31;;;9.52;100.00
61573;BME280;47465;43.094;12.434;2023-04-19T05:51:41;98669.41;;;9.77;100.00
61573;BME280;47465;43.094;12.434;2023-04-19T05:54:08;98664.47;;;9.98;100.00
61573;BME280;47465;43.094;12.434;2023-04-19T05:56:38;98665.66;;;10.19;100.00
61573;BME280;47465;43.094;12.434;2023-04-19T05:59:05;98665.25;;;10.36;98.51
61573;BME280;47465;43.094;12.434;2023-04-19T06:01:31;98669.44;;;10.44;97.12
61573;BME280;47465;43.094;12.434;2023-04-19T06:03:57;98654.47;;;10.40;96.66
61573;BME280;47465;43.094;12.434;2023-04-19T06:06:22;98693.41;;;10.74;96.84
61573;BME280;47465;43.094;12.434;2023-04-19T06:08:49;98662.00;;;10.56;94.47
61573;BME280;47465;43.094;12.434;2023-04-19T06:11:15;98691.41;;;10.82;94.64
61573;BME280;47465;43.094;12.434;2023-04-19T06:13:42;98654.50;;;10.70;92.85
61573;BME280;47465;43.094;12.434;2023-04-19T06:16:09;98682.59;;;10.80;91.78
61573;BME280;47465;43.094;12.434;2023-04-19T06:18:35;98698.81;;;11.01;92.61
61573;BME280;47465;43.094;12.434;2023-04-19T06:21:01;98675.13;;;10.93;91.32
61573;BME280;47465;43.094;12.434;2023-04-19T06:23:27;98669.66;;;10.98;93.05
61573;BME280;47465;43.094;12.434;2023-04-19T06:25:53;98677.03;;;11.18;92.81
61573;BME280;47465;43.094;12.434;2023-04-19T06:28:19;98668.00;;;11.23;92.04
61573;BME280;47465;43.094;12.434;2023-04-19T06:30:46;98657.88;;;11.35;90.70
61573;BME280;47465;43.094;12.434;2023-04-19T06:33:12;98665.88;;;11.61;90.30
61573;BME280;47465;43.094;12.434;2023-04-19T06:35:38;98680.44;;;11.78;86.87
61573;BME280;47465;43.094;12.434;2023-04-19T06:38:04;98671.19;;;11.89;87.03
61573;BME280;47465;43.094;12.434;2023-04-19T06:40:30;98661.31;;;11.93;85.75
61573;BME280;47465;43.094;12.434;2023-04-19T06:42:56;98678.47;;;12.09;85.63
61573;BME280;47465;43.094;12.434;2023-04-19T06:45:22;98666.72;;;12.17;85.73
61573;BME280;47465;43.094;12.434;2023-04-19T06:47:49;98654.88;;;12.24;84.97
61573;BME280;47465;43.094;12.434;2023-04-19T06:50:15;98656.88;;;12.42;84.55
61573;BME280;47465;43.094;12.434;2023-04-19T06:52:41;98644.19;;;12.49;84.37
61573;BME280;47465;43.094;12.434;2023-04-19T06:55:08;98678.50;;;12.83;83.52
61573;BME280;47465;43.094;12.434;2023-04-19T06:57:34;98677.03;;;12.98;82.22
61573;BME280;47465;43.094;12.434;2023-04-19T07:00:00;98643.47;;;12.92;80.59
61573;BME280;47465;43.094;12.434;2023-04-19T07:02:26;98654.00;;;13.19;80.66
61573;BME280;47465;43.094;12.434;2023-04-19T07:04:53;98657.97;;;13.53;79.36
61573;BME280;47465;43.094;12.434;2023-04-19T07:07:19;98635.31;;;13.63;78.39
61573;BME280;47465;43.094;12.434;2023-04-19T07:09:45;98621.66;;;13.71;78.37
61573;BME280;47465;43.094;12.434;2023-04-19T07:12:11;98648.13;;;14.18;75.86
61573;BME280;47465;43.094;12.434;2023-04-19T07:14:37;98633.00;;;14.58;73.03
61573;BME280;47465;43.094;12.434;2023-04-19T07:17:03;98649.03;;;14.97;70.99
61573;BME280;47465;43.094;12.434;2023-04-19T07:19:30;98622.31;;;14.96;70.23
61573;BME280;47465;43.094;12.434;2023-04-19T07:21:58;98633.41;;;14.88;71.50
61573;BME280;47465;43.094;12.434;2023-04-19T07:24:24;98624.34;;;14.91;70.53
61573;BME280;47465;43.094;12.434;2023-04-19T07:26:51;98639.53;;;15.09;70.34
61573;BME280;47465;43.094;12.434;2023-04-19T07:29:17;98606.97;;;14.81;72.63
61573;BME280;47465;43.094;12.434;2023-04-19T07:31:43;98597.44;;;14.75;73.45
61573;BME280;47465;43.094;12.434;2023-04-19T07:34:09;98617.84;;;14.96;71.91
61573;BME280;47465;43.094;12.434;2023-04-19T07:36:35;98605.69;;;14.89;69.33
61573;BME280;47465;43.094;12.434;2023-04-19T07:39:03;98631.50;;;15.09;69.61
61573;BME280;47465;43.094;12.434;2023-04-19T07:41:29;98606.34;;;14.94;71.31
61573;BME280;47465;43.094;12.434;2023-04-19T07:43:55;98624.44;;;15.08;70.06
61573;BME280;47465;43.094;12.434;2023-04-19T07:46:21;98598.03;;;14.42;70.88
61573;BME280;47465;43.094;12.434;2023-04-19T07:48:47;98631.09;;;14.99;67.52
61573;BME280;47465;43.094;12.434;2023-04-19T07:51:14;98607.47;;;14.70;68.74
61573;BME280;47465;43.094;12.434;2023-04-19T07:53:42;98609.09;;;15.12;67.96
61573;BME280;47465;43.094;12.434;2023-04-19T07:56:10;98604.69;;;15.47;66.95
61573;BME280;47465;43.094;12.434;2023-04-19T07:58:37;98591.28;;;15.65;67.06
61573;BME280;47465;43.094;12.434;2023-04-19T08:01:04;98613.59;;;16.01;66.30
61573;BME280;47465;43.094;12.434;2023-04-19T08:03:30;98616.50;;;15.97;63.57
61573;BME280;47465;43.094;12.434;2023-04-19T08:05:56;98600.88;;;16.05;64.48
61573;BME280;47465;43.094;12.434;2023-04-19T08:08:22;98622.63;;;16.34;63.09
61573;BME280;47465;43.094;12.434;2023-04-19T08:10:49;98627.25;;;16.48;61.46
61573;BME280;47465;43.094;12.434;2023-04-19T08:13:17;98590.06;;;15.89;62.98
61573;BME280;47465;43.094;12.434;2023-04-19T08:15:42;98626.25;;;16.33;64.58
61573;BME280;47465;43.094;12.434;2023-04-19T08:18:09;98624.47;;;16.16;64.29
61573;BME280;47465;43.094;12.434;2023-04-19T08:20:35;98604.00;;;16.13;62.74
61573;BME280;47465;43.094;12.434;2023-04-19T08:23:07;98631.78;;;16.30;60.87
61573;BME280;47465;43.094;12.434;2023-04-19T08:25:33;98606.00;;;16.27;62.60
61573;BME280;47465;43.094;12.434;2023-04-19T08:28:00;98629.72;;;16.17;61.99
61573;BME280;47465;43.094;12.434;2023-04-19T08:30:27;98588.81;;;16.14;61.68
61573;BME280;47465;43.094;12.434;2023-04-19T08:32:53;98589.63;;;16.32;62.26
61573;BME280;47465;43.094;12.434;2023-04-19T08:35:19;98599.34;;;16.34;62.74
61573;BME280;47465;43.094;12.434;2023-04-19T08:37:47;98585.09;;;15.99;62.23
61573;BME280;47465;43.094;12.434;2023-04-19T08:40:13;98585.69;;;16.21;60.74
61573;BME280;47465;43.094;12.434;2023-04-19T08:42:39;98616.22;;;16.70;60.70
61573;BME280;47465;43.094;12.434;2023-04-19T08:45:06;98620.09;;;16.81;60.14
61573;BME280;47465;43.094;12.434;2023-04-19T08:47:34;98588.88;;;16.79;60.55
61573;BME280;47465;43.094;12.434;2023-04-19T08:50:02;98569.50;;;17.06;60.24
61573;BME280;47465;43.094;12.434;2023-04-19T08:52:29;98604.38;;;17.69;58.75
61573;BME280;47465;43.094;12.434;2023-04-19T08:54:55;98598.13;;;17.84;56.78
61573;BME280;47465;43.094;12.434;2023-04-19T08:57:21;98570.00;;;17.90;55.95
61573;BME280;47465;43.094;12.434;2023-04-19T08:59:48;98602.66;;;18.29;55.95
61573;BME280;47465;43.094;12.434;2023-04-19T09:02:20;98579.56;;;18.24;55.05
61573;BME280;47465;43.094;12.434;2023-04-19T09:04:47;98569.00;;;18.36;55.14
61573;BME280;47465;43.094;12.434;2023-04-19T09:07:22;98574.38;;;18.21;54.12
61573;BME280;47465;43.094;12.434;2023-04-19T09:10:04;98561.13;;;17.58;55.39
61573;BME280;47465;43.094;12.434;2023-04-19T09:12:30;98585.28;;;17.90;55.55
61573;BME280;47465;43.094;12.434;2023-04-19T09:14:56;98567.22;;;17.76;56.14
61573;BME280;47465;43.094;12.434;2023-04-19T09:17:22;98578.47;;;18.13;53.76
61573;BME280;47465;43.094;12.434;2023-04-19T09:19:50;98571.00;;;18.18;54.07
61573;BME280;47465;43.094;12.434;2023-04-19T09:22:16;98572.47;;;18.38;54.38
61573;BME280;47465;43.094;12.434;2023-04-19T09:24:42;98568.34;;;18.46;52.88
61573;BME280;47465;43.094;12.434;2023-04-19T09:27:08;98559.50;;;18.59;52.46
61573;BME280;47465;43.094;12.434;2023-04-19T09:29:36;98562.09;;;18.89;52.56
61573;BME280;47465;43.094;12.434;2023-04-19T09:32:02;98571.88;;;18.76;53.27
61573;BME280;47465;43.094;12.434;2023-04-19T09:34:29;98533.78;;;18.10;50.17
61573;BME280;47465;43.094;12.434;2023-04-19T09:36:56;98554.09;;;18.59;52.78
61573;BME280;47465;43.094;12.434;2023-04-19T09:39:29;98555.34;;;18.82;51.73
61573;BME280;47465;43.094;12.434;2023-04-19T09:41:56;98544.91;;;17.90;51.41
61573;BME280;47465;43.094;12.434;2023-04-19T09:44:22;98530.81;;;17.70;52.46
61573;BME280;47465;43.094;12.434;2023-04-19T09:46:48;98550.81;;;18.25;54.53
61573;BME280;47465;43.094;12.434;2023-04-19T09:49:18;98520.25;;;18.40;52.85
61573;BME280;47465;43.094;12.434;2023-04-19T09:51:45;98514.84;;;18.69;52.11
61573;BME280;47465;43.094;12.434;2023-04-19T09:54:14;98505.69;;;18.86;51.35
61573;BME280;47465;43.094;12.434;2023-04-19T09:56:41;98531.00;;;19.25;49.73
61573;BME280;47465;43.094;12.434;2023-04-19T09:59:08;98535.47;;;19.39;47.70
61573;BME280;47465;43.094;12.434;2023-04-19T10:01:37;98524.03;;;19.35;47.50
61573;BME280;47465;43.094;12.434;2023-04-19T10:04:05;98507.31;;;19.43;46.67
61573;BME280;47465;43.094;12.434;2023-04-19T10:06:32;98517.41;;;19.66;47.16
61573;BME280;47465;43.094;12.434;2023-04-19T10:09:00;98507.44;;;19.81;47.21
61573;BME280;47465;43.094;12.434;2023-04-19T10:11:32;98493.94;;;19.81;47.61
61573;BME280;47465;43.094;12.434;2023-04-19T10:14:04;98529.28;;;20.04;46.50
61573;BME280;47465;43.094;12.434;2023-04-19T10:16:31;98510.16;;;20.07;46.22
61573;BME280;47465;43.094;12.434;2023-04-19T10:18:58;98521.81;;;20.20;45.72
61573;BME280;47465;43.094;12.434;2023-04-19T10:21:26;98500.53;;;20.03;43.32
61573;BME280;47465;43.094;12.434;2023-04-19T10:23:52;98495.47;;;19.85;43.64
61573;BME280;47465;43.094;12.434;2023-04-19T10:26:18;98492.44;;;19.77;45.09
61573;BME280;47465;43.094;12.434;2023-04-19T10:28:46;98485.34;;;19.62;43.10
61573;BME280;47465;43.094;12.434;2023-04-19T10:31:12;98500.69;;;18.94;43.54
61573;BME280;47465;43.094;12.434;2023-04-19T10:33:40;98490.56;;;18.98;42.98
61573;BME280;47465;43.094;12.434;2023-04-19T10:36:08;98488.91;;;18.95;44.05
61573;BME280;47465;43.094;12.434;2023-04-19T10:38:36;98481.06;;;19.19;43.94
61573;BME280;47465;43.094;12.434;2023-04-19T10:41:02;98457.91;;;19.42;42.60
61573;BME280;47465;43.094;12.434;2023-04-19T10:43:30;98475.81;;;19.70;44.11
61573;BME280;47465;43.094;12.434;2023-04-19T10:46:00;98454.47;;;19.40;46.34
61573;BME280;47465;43.094;12.434;2023-04-19T10:51:18;98453.66;;;20.17;45.64
61573;BME280;47465;43.094;12.434;2023-04-19T10:53:56;98455.50;;;20.29;42.97
61573;BME280;47465;43.094;12.434;2023-04-19T10:59:29;98421.09;;;20.69;42.29
61573;BME280;47465;43.094;12.434;2023-04-19T11:01:58;98424.34;;;20.86;40.86
61573;BME280;47465;43.094;12.434;2023-04-19T11:04:56;98456.91;;;21.32;41.20
61573;BME280;47465;43.094;12.434;2023-04-19T11:07:23;98437.78;;;21.47;41.30
61573;BME280;47465;43.094;12.434;2023-04-19T11:09:49;98447.78;;;21.58;41.06
61573;BME280;47465;43.094;12.434;2023-04-19T11:12:18;98428.84;;;21.58;40.12
61573;BME280;47465;43.094;12.434;2023-04-19T11:14:45;98419.97;;;21.20;40.66
61573;BME280;47465;43.094;12.434;2023-04-19T11:17:17;98419.16;;;20.46;41.78
61573;BME280;47465;43.094;12.434;2023-04-19T11:19:44;98423.44;;;20.98;41.78
61573;BME280;47465;43.094;12.434;2023-04-19T11:22:10;98423.28;;;20.51;41.81
61573;BME280;47465;43.094;12.434;2023-04-19T11:24:36;98397.66;;;20.81;41.06
61573;BME280;47465;43.094;12.434;2023-04-19T11:27:06;98409.56;;;21.03;41.04
61573;BME280;47465;43.094;12.434;2023-04-19T11:29:33;98412.31;;;20.16;42.80
61573;BME280;47465;43.094;12.434;2023-04-19T11:31:59;98401.13;;;19.71;44.81
61573;BME280;47465;43.094;12.434;2023-04-19T11:34:26;98407.59;;;19.81;44.86
61573;BME280;47465;43.094;12.434;2023-04-19T11:36:52;98400.16;;;19.98;43.68
61573;BME280;47465;43.094;12.434;2023-04-19T11:39:18;98383.59;;;20.28;43.84
61573;BME280;47465;43.094;12.434;2023-04-19T11:41:44;98390.31;;;20.83;42.54
61573;BME280;47465;43.094;12.434;2023-04-19T11:44:13;98388.53;;;21.30;41.24
61573;BME280;47465;43.094;12.434;2023-04-19T11:46:39;98367.00;;;21.64;40.50
61573;BME280;47465;43.094;12.434;2023-04-19T11:49:05;98363.84;;;21.35;40.22
61573;BME280;47465;43.094;12.434;2023-04-19T11:51:43;98378.47;;;21.32;41.79
61573;BME280;47465;43.094;12.434;2023-04-19T11:54:12;98367.56;;;21.10;43.21
61573;BME280;47465;43.094;12.434;2023-04-19T11:57:00;98366.38;;;20.90;43.21
61573;BME280;47465;43.094;12.434;2023-04-19T11:59:28;98382.84;;;20.87;44.48
61573;BME280;47465;43.094;12.434;2023-04-19T12:01:54;98367.50;;;20.63;44.01
61573;BME280;47465;43.094;12.434;2023-04-19T12:04:20;98352.44;;;20.35;45.40
61573;BME280;47465;43.094;12.434;2023-04-19T12:06:57;98359.25;;;19.65;45.90
61573;BME280;47465;43.094;12.434;2023-04-19T12:09:24;98356.94;;;19.21;47.16
61573;BME280;47465;43.094;12.434;2023-04-19T12:11:50;98371.66;;;18.90;47.29
61573;BME280;47465;43.094;12.434;2023-04-19T12:14:18;98354.19;;;18.82;48.42
61573;BME280;47465;43.094;12.434;2023-04-19T12:16:45;98387.75;;;19.04;47.87
61573;BME280;47465;43.094;12.434;2023-04-19T12:19:27;98350.41;;;18.85;47.48
61573;BME280;47465;43.094;12.434;2023-04-19T12:22:09;98353.44;;;18.80;47.85
61573;BME280;47465;43.094;12.434;2023-04-19T12:24:36;98357.34;;;18.89;47.28
61573;BME280;47465;43.094;12.434;2023-04-19T12:27:02;98359.56;;;19.61;46.89
61573;BME280;47465;43.094;12.434;2023-04-19T12:29:28;98369.44;;;20.24;45.96
61573;BME280;47465;43.094;12.434;2023-04-19T12:31:58;98354.03;;;20.01;44.83
61573;BME280;47465;43.094;12.434;2023-04-19T12:34:23;98363.41;;;20.08;44.30
61573;BME280;47465;43.094;12.434;2023-04-19T12:36:49;98365.47;;;20.17;44.03
61573;BME280;47465;43.094;12.434;2023-04-19T12:39:17;98378.00;;;19.93;44.93
61573;BME280;47465;43.094;12.434;2023-04-19T12:41:43;98362.75;;;19.15;47.01
61573;BME280;47465;43.094;12.434;2023-04-19T12:44:09;98345.41;;;19.32;46.65
61573;BME280;47465;43.094;12.434;2023-04-19T12:46:35;98364.19;;;19.33;45.95
61573;BME280;47465;43.094;12.434;2023-04-19T12:49:01;98340.06;;;19.70;43.85
61573;BME280;47465;43.094;12.434;2023-04-19T12:51:27;98335.47;;;20.09;43.55
61573;BME280;47465;43.094;12.434;2023-04-19T12:53:53;98335.03;;;20.15;41.92
61573;BME280;47465;43.094;12.434;2023-04-19T12:56:20;98343.44;;;20.47;41.90
61573;BME280;47465;43.094;12.434;2023-04-19T12:58:46;98347.00;;;20.48;40.71
61573;BME280;47465;43.094;12.434;2023-04-19T13:01:12;98353.13;;;19.76;41.23
61573;BME280;47465;43.094;12.434;2023-04-19T13:03:38;98331.09;;;19.82;40.73